DLH05K EDDF-LOWS
Flight info
| Callsign | DLH05K |
|---|---|
| Flight time | 0h 40m |
| Altitude | 25000 |
| Route | CINDY Z74 HAREM DCT ASLEP DCT TAKUT DCT DINKU L603 OLETU T702 BADIT |
| Aircraft | B744/H-SDE3FGHIM1M2RWXY/LB1 |
Departure
| Time | 2026-05-05 14:23 |
|---|---|
| Airport | Frankfurt Main Airport (EDDF) |
Arrival
| Time | 2026-05-05 15:04 |
|---|---|
| Airport | Salzburg Airport (LOWS) |
| Time | Latitude | Longitude | Altitude | Speed | Heading |
|---|---|---|---|---|---|
| 2026-05-05 14:23 | 49.77428 | 8.59131 | 12925 ft | 292 kts | 103° |
| 2026-05-05 14:23 | 49.77461 | 8.62436 | 13195 ft | 325 kts | 85° |
| 2026-05-05 14:24 | 49.77742 | 8.66047 | 13468 ft | 353 kts | 89° |
| 2026-05-05 14:24 | 49.77777 | 8.69991 | 13700 ft | 382 kts | 93° |
| 2026-05-05 14:24 | 49.77605 | 8.74223 | 14191 ft | 401 kts | 98° |
| 2026-05-05 14:24 | 49.77229 | 8.78527 | 15098 ft | 410 kts | 98° |
| 2026-05-05 14:25 | 49.77065 | 8.82978 | 16124 ft | 418 kts | 94° |
| 2026-05-05 14:25 | 49.76988 | 8.87506 | 17130 ft | 424 kts | 94° |
| 2026-05-05 14:25 | 49.76862 | 8.92091 | 18088 ft | 430 kts | 96° |
| 2026-05-05 14:25 | 49.76688 | 8.96748 | 18969 ft | 438 kts | 96° |
| 2026-05-05 14:26 | 49.76504 | 9.01499 | 19843 ft | 445 kts | 96° |
| 2026-05-05 14:26 | 49.76317 | 9.06305 | 20669 ft | 452 kts | 96° |
| 2026-05-05 14:26 | 49.75963 | 9.11163 | 21489 ft | 456 kts | 102° |
| 2026-05-05 14:26 | 49.75115 | 9.15902 | 22245 ft | 458 kts | 116° |
| 2026-05-05 14:27 | 49.73572 | 9.20151 | 23225 ft | 453 kts | 126° |
| 2026-05-05 14:27 | 49.71747 | 9.24110 | 24260 ft | 451 kts | 131° |
| 2026-05-05 14:27 | 49.69735 | 9.27811 | 24676 ft | 449 kts | 136° |
| 2026-05-05 14:27 | 49.67620 | 9.31347 | 24857 ft | 447 kts | 137° |
| 2026-05-05 14:28 | 49.66231 | 9.33689 | 24905 ft | 446 kts | 136° |
| 2026-05-05 14:28 | 49.64166 | 9.37267 | 24906 ft | 446 kts | 135° |
| 2026-05-05 14:28 | 49.61896 | 9.42651 | 24912 ft | 452 kts | 120° |
| 2026-05-05 14:28 | 49.61034 | 9.45576 | 24909 ft | 455 kts | 117° |
| 2026-05-05 14:29 | 49.59541 | 9.51712 | 24905 ft | 458 kts | 112° |
| 2026-05-05 14:29 | 49.58893 | 9.54802 | 24904 ft | 459 kts | 111° |
| 2026-05-05 14:29 | 49.57936 | 9.59495 | 24904 ft | 460 kts | 111° |
| 2026-05-05 14:29 | 49.56605 | 9.65764 | 24904 ft | 460 kts | 111° |
| 2026-05-05 14:30 | 49.55935 | 9.68862 | 24904 ft | 460 kts | 111° |
| 2026-05-05 14:30 | 49.54922 | 9.73531 | 24904 ft | 460 kts | 111° |
| 2026-05-05 14:30 | 49.53909 | 9.78191 | 24904 ft | 460 kts | 112° |
| 2026-05-05 14:30 | 49.52076 | 9.84030 | 24907 ft | 456 kts | 125° |
| 2026-05-05 14:31 | 49.50913 | 9.86784 | 24907 ft | 454 kts | 128° |
| 2026-05-05 14:31 | 49.49055 | 9.90692 | 24905 ft | 451 kts | 132° |
| 2026-05-05 14:31 | 49.47078 | 9.94421 | 24905 ft | 449 kts | 134° |
| 2026-05-05 14:31 | 49.45065 | 9.98089 | 24904 ft | 448 kts | 134° |
| 2026-05-05 14:32 | 49.43074 | 10.01793 | 24904 ft | 448 kts | 133° |
| 2026-05-05 14:32 | 49.41102 | 10.05503 | 24905 ft | 449 kts | 133° |
| 2026-05-05 14:32 | 49.39126 | 10.09223 | 24904 ft | 449 kts | 133° |
| 2026-05-05 14:32 | 49.37158 | 10.12934 | 24903 ft | 449 kts | 133° |
| 2026-05-05 14:33 | 49.35223 | 10.16604 | 24902 ft | 448 kts | 133° |
| 2026-05-05 14:33 | 49.33229 | 10.20350 | 24901 ft | 448 kts | 133° |
| 2026-05-05 14:33 | 49.31277 | 10.23998 | 24900 ft | 448 kts | 133° |
| 2026-05-05 14:33 | 49.29277 | 10.27727 | 24898 ft | 447 kts | 133° |
| 2026-05-05 14:34 | 49.27303 | 10.31404 | 24898 ft | 447 kts | 133° |
| 2026-05-05 14:34 | 49.25323 | 10.35090 | 24897 ft | 447 kts | 133° |
| 2026-05-05 14:34 | 49.23345 | 10.38662 | 24899 ft | 446 kts | 136° |
| 2026-05-05 14:34 | 49.21164 | 10.42105 | 24903 ft | 444 kts | 139° |
| 2026-05-05 14:35 | 49.18927 | 10.45354 | 24904 ft | 443 kts | 140° |
| 2026-05-05 14:35 | 49.16702 | 10.48602 | 24904 ft | 442 kts | 140° |
| 2026-05-05 14:35 | 49.14491 | 10.51878 | 24904 ft | 442 kts | 139° |
| 2026-05-05 14:35 | 49.12289 | 10.55154 | 24904 ft | 442 kts | 139° |
| 2026-05-05 14:36 | 49.10107 | 10.58394 | 24903 ft | 442 kts | 139° |
| 2026-05-05 14:36 | 49.07901 | 10.61656 | 24902 ft | 442 kts | 139° |
| 2026-05-05 14:36 | 49.05698 | 10.64913 | 24900 ft | 442 kts | 139° |
| 2026-05-05 14:36 | 49.03492 | 10.68181 | 24898 ft | 442 kts | 139° |
| 2026-05-05 14:37 | 49.01283 | 10.71429 | 24896 ft | 441 kts | 139° |
| 2026-05-05 14:37 | 48.99067 | 10.74673 | 24895 ft | 441 kts | 139° |
| 2026-05-05 14:37 | 48.96851 | 10.77909 | 24892 ft | 441 kts | 139° |
| 2026-05-05 14:37 | 48.94641 | 10.81136 | 24891 ft | 441 kts | 139° |
| 2026-05-05 14:38 | 48.92427 | 10.84366 | 24889 ft | 441 kts | 139° |
| 2026-05-05 14:38 | 48.90221 | 10.87620 | 24887 ft | 441 kts | 139° |
| 2026-05-05 14:38 | 48.88016 | 10.90864 | 24886 ft | 441 kts | 139° |
| 2026-05-05 14:38 | 48.85808 | 10.94093 | 24887 ft | 441 kts | 139° |
| 2026-05-05 14:39 | 48.83613 | 10.97295 | 24807 ft | 433 kts | 139° |
| 2026-05-05 14:39 | 48.81438 | 11.00464 | 24402 ft | 436 kts | 139° |
| 2026-05-05 14:39 | 48.79235 | 11.03670 | 23902 ft | 440 kts | 139° |
| 2026-05-05 14:39 | 48.77015 | 11.06907 | 23402 ft | 443 kts | 139° |
| 2026-05-05 14:40 | 48.74807 | 11.10138 | 22902 ft | 440 kts | 139° |
| 2026-05-05 14:40 | 48.72607 | 11.13332 | 22400 ft | 435 kts | 139° |
| 2026-05-05 14:40 | 48.70434 | 11.16479 | 21900 ft | 431 kts | 139° |
| 2026-05-05 14:40 | 48.68282 | 11.19589 | 21400 ft | 426 kts | 139° |
| 2026-05-05 14:41 | 48.66145 | 11.22677 | 20899 ft | 422 kts | 139° |
| 2026-05-05 14:41 | 48.64135 | 11.25793 | 20404 ft | 417 kts | 134° |
| 2026-05-05 14:41 | 48.62295 | 11.29201 | 19899 ft | 411 kts | 130° |
| 2026-05-05 14:41 | 48.60702 | 11.32464 | 19426 ft | 406 kts | 128° |
| 2026-05-05 14:42 | 48.58983 | 11.36056 | 18903 ft | 401 kts | 129° |
| 2026-05-05 14:42 | 48.57306 | 11.39476 | 18396 ft | 397 kts | 129° |
| 2026-05-05 14:42 | 48.55655 | 11.42790 | 17896 ft | 394 kts | 129° |
| 2026-05-05 14:42 | 48.54013 | 11.46064 | 17395 ft | 390 kts | 129° |
| 2026-05-05 14:43 | 48.52401 | 11.49272 | 16901 ft | 386 kts | 129° |
| 2026-05-05 14:43 | 48.50769 | 11.52515 | 16394 ft | 381 kts | 129° |
| 2026-05-05 14:43 | 48.49174 | 11.55683 | 15893 ft | 377 kts | 129° |
| 2026-05-05 14:43 | 48.47628 | 11.58807 | 15394 ft | 374 kts | 126° |
| 2026-05-05 14:44 | 48.46369 | 11.62203 | 14898 ft | 372 kts | 118° |
| 2026-05-05 14:44 | 48.45342 | 11.65769 | 14500 ft | 367 kts | 114° |
| 2026-05-05 14:44 | 48.44456 | 11.69329 | 14125 ft | 361 kts | 112° |
| 2026-05-05 14:44 | 48.43633 | 11.72882 | 13748 ft | 355 kts | 111° |
| 2026-05-05 14:45 | 48.42827 | 11.76352 | 13373 ft | 350 kts | 111° |
| 2026-05-05 14:45 | 48.42015 | 11.79783 | 12996 ft | 344 kts | 112° |
| 2026-05-05 14:45 | 48.41210 | 11.83144 | 12620 ft | 338 kts | 112° |
| 2026-05-05 14:45 | 48.40415 | 11.86436 | 12352 ft | 330 kts | 112° |
| 2026-05-05 14:46 | 48.39638 | 11.89636 | 12099 ft | 323 kts | 112° |
| 2026-05-05 14:46 | 48.38869 | 11.92793 | 11848 ft | 319 kts | 112° |
| 2026-05-05 14:46 | 48.38108 | 11.95907 | 11596 ft | 316 kts | 112° |
| 2026-05-05 14:46 | 48.37349 | 11.99006 | 11346 ft | 316 kts | 112° |
| 2026-05-05 14:47 | 48.36593 | 12.02091 | 11096 ft | 315 kts | 112° |
| 2026-05-05 14:47 | 48.35838 | 12.05165 | 10844 ft | 309 kts | 111° |
| 2026-05-05 14:47 | 48.35102 | 12.08158 | 10592 ft | 302 kts | 111° |
| 2026-05-05 14:47 | 48.34403 | 12.11103 | 10340 ft | 297 kts | 110° |
| 2026-05-05 14:48 | 48.33739 | 12.14015 | 10076 ft | 295 kts | 110° |
| 2026-05-05 14:48 | 48.33048 | 12.16964 | 9703 ft | 300 kts | 110° |
| 2026-05-05 14:48 | 48.32342 | 12.19900 | 9327 ft | 298 kts | 111° |
| 2026-05-05 14:48 | 48.31631 | 12.22808 | 9000 ft | 294 kts | 111° |
| 2026-05-05 14:49 | 48.30926 | 12.25668 | 8746 ft | 289 kts | 111° |
| 2026-05-05 14:49 | 48.30234 | 12.28463 | 8492 ft | 283 kts | 111° |
| 2026-05-05 14:49 | 48.29553 | 12.31201 | 8237 ft | 277 kts | 111° |
| 2026-05-05 14:49 | 48.28886 | 12.33877 | 8039 ft | 269 kts | 111° |
| 2026-05-05 14:50 | 48.28245 | 12.36442 | 7920 ft | 258 kts | 111° |
| 2026-05-05 14:50 | 48.27619 | 12.38946 | 7682 ft | 254 kts | 111° |
| 2026-05-05 14:50 | 48.27006 | 12.41396 | 7391 ft | 248 kts | 110° |
| 2026-05-05 14:50 | 48.26409 | 12.43782 | 7109 ft | 240 kts | 110° |
| 2026-05-05 14:51 | 48.25833 | 12.46084 | 6855 ft | 232 kts | 110° |
| 2026-05-05 14:51 | 48.25271 | 12.48328 | 6726 ft | 228 kts | 110° |
| 2026-05-05 14:51 | 48.24715 | 12.50546 | 6623 ft | 226 kts | 110° |
| 2026-05-05 14:51 | 48.24162 | 12.52755 | 6523 ft | 226 kts | 110° |
| 2026-05-05 14:52 | 48.23610 | 12.54958 | 6422 ft | 225 kts | 110° |
| 2026-05-05 14:52 | 48.23062 | 12.57153 | 6323 ft | 225 kts | 110° |
| 2026-05-05 14:52 | 48.22523 | 12.59343 | 6226 ft | 219 kts | 110° |
| 2026-05-05 14:52 | 48.22011 | 12.61404 | 6126 ft | 206 kts | 110° |
| 2026-05-05 14:53 | 48.21514 | 12.63388 | 6035 ft | 201 kts | 110° |
| 2026-05-05 14:53 | 48.21019 | 12.65351 | 5910 ft | 201 kts | 110° |
| 2026-05-05 14:53 | 48.20526 | 12.67303 | 5809 ft | 201 kts | 110° |
| 2026-05-05 14:53 | 48.20030 | 12.69264 | 5709 ft | 201 kts | 110° |
| 2026-05-05 14:54 | 48.19535 | 12.71213 | 5609 ft | 201 kts | 110° |
| 2026-05-05 14:54 | 48.19038 | 12.73171 | 5509 ft | 200 kts | 110° |
| 2026-05-05 14:54 | 48.18550 | 12.75091 | 5410 ft | 200 kts | 110° |
| 2026-05-05 14:54 | 48.18050 | 12.77061 | 5311 ft | 200 kts | 110° |
| 2026-05-05 14:55 | 48.17556 | 12.79005 | 5210 ft | 199 kts | 110° |
| 2026-05-05 14:55 | 48.17070 | 12.80918 | 5110 ft | 199 kts | 111° |
| 2026-05-05 14:55 | 48.16355 | 12.82667 | 4999 ft | 199 kts | 137° |
| 2026-05-05 14:55 | 48.15134 | 12.83665 | 4916 ft | 198 kts | 157° |
| 2026-05-05 14:56 | 48.13806 | 12.84231 | 4843 ft | 198 kts | 165° |
| 2026-05-05 14:56 | 48.12453 | 12.84594 | 4771 ft | 198 kts | 171° |
| 2026-05-05 14:56 | 48.11103 | 12.84853 | 4717 ft | 189 kts | 173° |
| 2026-05-05 14:56 | 48.09838 | 12.85084 | 4644 ft | 180 kts | 172° |
| 2026-05-05 14:57 | 48.08622 | 12.85331 | 4564 ft | 177 kts | 172° |
| 2026-05-05 14:57 | 48.07415 | 12.85597 | 4484 ft | 175 kts | 172° |
| 2026-05-05 14:57 | 48.06213 | 12.85872 | 4409 ft | 175 kts | 172° |
| 2026-05-05 14:57 | 48.05008 | 12.86153 | 4333 ft | 175 kts | 171° |
| 2026-05-05 14:58 | 48.03805 | 12.86437 | 4254 ft | 176 kts | 172° |
| 2026-05-05 14:58 | 48.02587 | 12.86723 | 4182 ft | 178 kts | 171° |
| 2026-05-05 14:58 | 48.01362 | 12.87012 | 4108 ft | 178 kts | 171° |
| 2026-05-05 14:58 | 48.00140 | 12.87317 | 4033 ft | 178 kts | 168° |
| 2026-05-05 14:59 | 47.98955 | 12.87855 | 3964 ft | 177 kts | 161° |
| 2026-05-05 14:59 | 47.97817 | 12.88543 | 3904 ft | 176 kts | 158° |
| 2026-05-05 14:59 | 47.96717 | 12.89279 | 3906 ft | 170 kts | 156° |
| 2026-05-05 14:59 | 47.95644 | 12.89986 | 3897 ft | 168 kts | 156° |
| 2026-05-05 15:00 | 47.94585 | 12.90680 | 3873 ft | 165 kts | 156° |
| 2026-05-05 15:00 | 47.93890 | 12.91136 | 3849 ft | 164 kts | 156° |
| 2026-05-05 15:00 | 47.92524 | 12.92033 | 3855 ft | 156 kts | 156° |
| 2026-05-05 15:00 | 47.91534 | 12.92669 | 3734 ft | 155 kts | 157° |
| 2026-05-05 15:01 | 47.90547 | 12.93294 | 3543 ft | 154 kts | 157° |
| 2026-05-05 15:01 | 47.89563 | 12.93916 | 3349 ft | 153 kts | 157° |
| 2026-05-05 15:01 | 47.88583 | 12.94547 | 3127 ft | 154 kts | 156° |
| 2026-05-05 15:01 | 47.87604 | 12.95200 | 2919 ft | 154 kts | 156° |
| 2026-05-05 15:02 | 47.86614 | 12.95801 | 2697 ft | 154 kts | 158° |
| 2026-05-05 15:02 | 47.85615 | 12.96369 | 2497 ft | 154 kts | 156° |
| 2026-05-05 15:02 | 47.84634 | 12.97012 | 2305 ft | 154 kts | 154° |
| 2026-05-05 15:02 | 47.83644 | 12.97638 | 2125 ft | 155 kts | 155° |
| 2026-05-05 15:03 | 47.82658 | 12.98285 | 1934 ft | 153 kts | 155° |
| 2026-05-05 15:03 | 47.81680 | 12.98889 | 1703 ft | 151 kts | 154° |
| 2026-05-05 15:03 | 47.80720 | 12.99512 | 1501 ft | 153 kts | 154° |
| 2026-05-05 15:03 | 47.79767 | 13.00111 | 1426 ft | 137 kts | 154° |
| 2026-05-05 15:04 | 47.79107 | 13.00535 | 1425 ft | 64 kts | 156° |
| 2026-05-05 15:04 | 47.78848 | 13.00698 | 1424 ft | 11 kts | 158° |
| 2026-05-05 15:04 | 47.78781 | 13.00739 | 1424 ft | 10 kts | 158° |
| 2026-05-05 15:04 | 47.78718 | 13.00778 | 1424 ft | 10 kts | 156° |
| 2026-05-05 15:05 | 47.78602 | 13.00853 | 1424 ft | 9 kts | 156° |
| 2026-05-05 15:05 | 47.78557 | 13.00806 | 1424 ft | 12 kts | 242° |
| 2026-05-05 15:05 | 47.78527 | 13.00696 | 1424 ft | 10 kts | 258° |
| 2026-05-05 15:06 | 47.78555 | 13.00620 | 1424 ft | 9 kts | 331° |
| 2026-05-05 15:06 | 47.78611 | 13.00583 | 1424 ft | 9 kts | 336° |
| 2026-05-05 15:06 | 47.78665 | 13.00548 | 1424 ft | 9 kts | 337° |
| 2026-05-05 15:06 | 47.78745 | 13.00498 | 1424 ft | 13 kts | 337° |
| 2026-05-05 15:07 | 47.78826 | 13.00446 | 1424 ft | 12 kts | 337° |
| 2026-05-05 15:07 | 47.78902 | 13.00398 | 1424 ft | 11 kts | 337° |
| 2026-05-05 15:07 | 47.78973 | 13.00353 | 1424 ft | 11 kts | 337° |
| 2026-05-05 15:07 | 47.79046 | 13.00307 | 1424 ft | 14 kts | 337° |
| 2026-05-05 15:08 | 47.79135 | 13.00251 | 1424 ft | 13 kts | 337° |
| 2026-05-05 15:08 | 47.79218 | 13.00198 | 1424 ft | 13 kts | 337° |
| 2026-05-05 15:08 | 47.79296 | 13.00149 | 1424 ft | 12 kts | 337° |
| 2026-05-05 15:08 | 47.79359 | 13.00102 | 1424 ft | 4 kts | 296° |
| 2026-05-05 15:09 | 47.79354 | 13.00061 | 1424 ft | 4 kts | 249° |
| 2026-05-05 15:09 | 47.79345 | 13.00026 | 1424 ft | 4 kts | 249° |
| 2026-05-05 15:09 | 47.79329 | 12.99968 | 1424 ft | 7 kts | 247° |
| 2026-05-05 15:09 | 47.79315 | 12.99904 | 1424 ft | 6 kts | 275° |
| 2026-05-05 15:10 | 47.79326 | 12.99851 | 1424 ft | 3 kts | 275° |
| 2026-05-05 15:10 | 47.79324 | 12.99827 | 1424 ft | 2 kts | 258° |
| 2026-05-05 15:10 | 47.79319 | 12.99808 | 1424 ft | 2 kts | 248° |
| 2026-05-05 15:10 | 47.79317 | 12.99800 | 1424 ft | 0 kts | 248° |